| time (UTC) | temp C | wind direction | speed KPH | gust KPH | rain 1hr cm | rain 24hr cm | rain mn cm | humidity % | barometer mb |
| 20260503225009 | 27 | 313 | 1.6 | 6.4 | 0.00 | 0.00 | 0.00 | 40 | 1011.2 |
| 20260503224521 | 27 | 259 | 1.6 | 4.8 | 0.00 | 0.00 | 0.00 | 36 | 1011.3 |
| 20260503224008 | 26 | 360 | 1.6 | 8.0 | 0.00 | 0.00 | 0.00 | 40 | 1011.4 |
| 20260503223508 | 26 | 288 | 0.0 | 16.1 | 0.00 | 0.00 | 0.00 | 37 | 1011.5 |
| 20260503223021 | 26 | 12 | 3.2 | 16.1 | 0.00 | 0.00 | 0.00 | 37 | 1011.6 |
| 20260503222506 | 26 | 343 | 4.8 | 14.5 | 0.00 | 0.00 | 0.00 | 36 | 1011.6 |
| 20260503222008 | 26 | 46 | 3.2 | 9.7 | 0.00 | 0.00 | 0.00 | 35 | 1011.7 |
| 20260503221522 | 26 | 327 | 3.2 | 11.3 | 0.00 | 0.00 | 0.00 | 34 | 1011.8 |
| 20260503221009 | 26 | 312 | 3.2 | 11.3 | 0.00 | 0.00 | 0.00 | 38 | 1011.8 |
| 20260503220508 | 26 | 298 | 3.2 | 9.7 | 0.00 | 0.00 | 0.00 | 37 | 1011.9 |
| 20260503220020 | 25 | 325 | 4.8 | 14.5 | 0.00 | 0.00 | 0.00 | 37 | 1011.9 |
| 20260503215507 | 26 | 296 | 3.2 | 14.5 | 0.00 | 0.00 | 0.00 | 38 | 1011.9 |
| 20260503215011 | 26 | 315 | 1.6 | 14.5 | 0.00 | 0.00 | 0.00 | 36 | 1012.0 |
| 20260503214521 | 26 | 327 | 3.2 | 14.5 | 0.00 | 0.00 | 0.00 | 39 | 1012.1 |
| 20260503214009 | 26 | 333 | 4.8 | 14.5 | 0.00 | 0.00 | 0.00 | 39 | 1012.2 |
| 20260503213511 | 26 | 349 | 4.8 | 11.3 | 0.00 | 0.00 | 0.00 | 38 | 1012.3 |
| 20260503213021 | 25 | 27 | 1.6 | 8.0 | 0.00 | 0.00 | 0.00 | 46 | 1012.3 |
| 20260503212508 | 25 | 14 | 1.6 | 6.4 | 0.00 | 0.00 | 0.00 | 44 | 1012.4 |
| 20260503212012 | 25 | 350 | 3.2 | 14.5 | 0.00 | 0.00 | 0.00 | 47 | 1012.4 |
| 20260503211523 | 25 | 275 | 3.2 | 14.5 | 0.00 | 0.00 | 0.00 | 47 | 1012.3 |
| 20260503211016 | 24 | 9 | 1.6 | 12.9 | 0.00 | 0.00 | 0.00 | 46 | 1012.3 |
| 20260503210508 | 24 | 237 | 4.8 | 8.0 | 0.00 | 0.00 | 0.00 | 47 | 1012.4 |
| 20260503210022 | 25 | 148 | 3.2 | 8.0 | 0.00 | 0.00 | 0.00 | 44 | 1012.5 |
| 20260503205512 | 25 | 274 | 1.6 | 8.0 | 0.00 | 0.00 | 0.00 | 47 | 1012.5 |
| 20260503205008 | 25 | 40 | 1.6 | 6.4 | 0.00 | 0.00 | 0.00 | 44 | 1012.6 |
| 20260503204527 | 25 | 321 | 1.6 | 11.3 | 0.00 | 0.00 | 0.00 | 43 | 1012.7 |
| 20260503204016 | 25 | 274 | 3.2 | 11.3 | 0.00 | 0.00 | 0.00 | 49 | 1012.8 |
| 20260503203507 | 25 | 321 | 1.6 | 6.4 | 0.00 | 0.00 | 0.00 | 41 | 1012.8 |
| 20260503203026 | 25 | 325 | 3.2 | 8.0 | 0.00 | 0.00 | 0.00 | 41 | 1012.9 |
| 20260503202510 | 25 | 289 | 3.2 | 9.7 | 0.00 | 0.00 | 0.00 | 42 | 1012.8 |
| 20260503202010 | 24 | 301 | 1.6 | 9.7 | 0.00 | 0.00 | 0.00 | 44 | 1012.8 |
| 20260503201521 | 24 | 351 | 3.2 | 14.5 | 0.00 | 0.00 | 0.00 | 47 | 1012.9 |
| 20260503201006 | 24 | 270 | 1.6 | 14.5 | 0.00 | 0.00 | 0.00 | 43 | 1013.0 |
| 20260503200508 | 24 | 329 | 3.2 | 14.5 | 0.00 | 0.00 | 0.00 | 47 | 1013.0 |
| 20260503200023 | 24 | 143 | 1.6 | 8.0 | 0.00 | 0.00 | 0.00 | 46 | 1013.2 |
| 20260503195507 | 23 | 12 | 3.2 | 16.1 | 0.00 | 0.00 | 0.00 | 45 | 1013.3 |
| 20260503195010 | 23 | 286 | 3.2 | 16.1 | 0.00 | 0.00 | 0.00 | 51 | 1013.3 |
| 20260503194524 | 23 | 360 | 4.8 | 16.1 | 0.00 | 0.00 | 0.00 | 49 | 1013.3 |
| 20260503194008 | 23 | 283 | 1.6 | 6.4 | 0.00 | 0.00 | 0.00 | 50 | 1013.4 |
| 20260503193512 | 23 | 225 | 1.6 | 6.4 | 0.00 | 0.00 | 0.00 | 52 | 1013.4 |
| 20260503193036 | 22 | 221 | 3.2 | 6.4 | 0.00 | 0.00 | 0.00 | 55 | 1013.5 |
| 20260503192502 | 23 | 182 | 1.6 | 4.8 | 0.00 | 0.00 | 0.00 | 56 | 1013.5 |
| 20260503192005 | 23 | 198 | 4.8 | 6.4 | 0.00 | 0.00 | 0.00 | 55 | 1013.5 |
| 20260503191526 | 23 | 207 | 3.2 | 8.0 | 0.00 | 0.00 | 0.00 | 56 | 1013.5 |
| 20260503191004 | 22 | 159 | 1.6 | 9.7 | 0.00 | 0.00 | 0.00 | 56 | 1013.6 |
| 20260503190503 | 22 | 233 | 1.6 | 9.7 | 0.00 | 0.00 | 0.00 | 55 | 1013.6 |
| 20260503190004 | 22 | 190 | 1.6 | 9.7 | 0.00 | 0.00 | 0.00 | 56 | 1013.6 |
| 20260503185503 | 22 | 211 | 3.2 | 8.0 | 0.00 | 0.00 | 0.00 | 58 | 1013.7 |
| 20260503185003 | 22 | 213 | 4.8 | 8.0 | 0.00 | 0.00 | 0.00 | 55 | 1013.7 |
| 20260503184506 | 22 | 254 | 3.2 | 9.7 | 0.00 | 0.00 | 0.00 | 57 | 1013.7 |
| 20260503184008 | 22 | 119 | 1.6 | 9.7 | 0.00 | 0.00 | 0.00 | 54 | 1013.7 |
| 20260503183504 | 22 | 331 | 1.6 | 9.7 | 0.00 | 0.00 | 0.00 | 53 | 1013.8 |
| 20260503183011 | 22 | 350 | 3.2 | 11.3 | 0.00 | 0.00 | 0.00 | 52 | 1013.9 |
| 20260503182505 | 22 | 219 | 1.6 | 11.3 | 0.00 | 0.00 | 0.00 | 1013.9 | |
| 20260503182005 | 21 | 36 | 1.6 | 14.5 | 0.00 | 0.00 | 0.00 | 1014.0 | |
| 20260503181505 | 21 | 201 | 6.4 | 14.5 | 0.00 | 0.00 | 0.00 | 1014.2 | |
| 20260503181003 | 21 | 208 | 3.2 | 12.9 | 0.00 | 0.00 | 0.00 | 57 | 1014.1 |
| 20260503180509 | 21 | 245 | 3.2 | 14.5 | 0.00 | 0.00 | 0.00 | 57 | 1014.1 |
| 20260503180009 | 21 | 254 | 3.2 | 14.5 | 0.00 | 0.00 | 0.00 | 57 | 1014.1 |
| 20260503175504 | 21 | 62 | 4.8 | 9.7 | 0.00 | 0.00 | 0.00 | 55 | 1014.1 |
| 20260503175003 | 21 | 32 | 1.6 | 12.9 | 0.00 | 0.00 | 0.00 | 55 | 1014.2 |
| 20260503174506 | 21 | 283 | 3.2 | 16.1 | 0.00 | 0.00 | 0.00 | 54 | 1014.3 |
| 20260503174003 | 21 | 329 | 4.8 | 16.1 | 0.00 | 0.00 | 0.00 | 52 | 1014.4 |
| 20260503173503 | 21 | 343 | 4.8 | 12.9 | 0.00 | 0.00 | 0.00 | 53 | 1014.3 |
| 20260503173013 | 21 | 107 | 1.6 | 11.3 | 0.00 | 0.00 | 0.00 | 58 | 1014.4 |
| 20260503172506 | 21 | 200 | 6.4 | 11.3 | 0.00 | 0.00 | 0.00 | 57 | 1014.4 |
| 20260503172004 | 21 | 49 | 1.6 | 6.4 | 0.00 | 0.00 | 0.00 | 57 | 1014.4 |
| 20260503171515 | 21 | 209 | 1.6 | 6.4 | 0.00 | 0.00 | 0.00 | 56 | 1014.4 |
| 20260503171005 | 20 | 29 | 3.2 | 8.0 | 0.00 | 0.00 | 0.00 | 59 | 1014.4 |
| 20260503170504 | 20 | 61 | 0.0 | 8.0 | 0.00 | 0.00 | 0.00 | 59 | 1014.4 |
| 20260503151004 | 15 | 61 | 1.6 | 12.9 | 0.00 | 0.00 | 0.00 | 71 | 1014.6 |
| 20260503150504 | 15 | 50 | 0.0 | 4.8 | 0.00 | 0.00 | 0.00 | 70 | 1014.7 |
| 20260503131012 | 12 | 171 | 1.6 | 6.4 | 0.00 | 0.00 | 0.00 | 77 | 1014.2 |
| 20260503130507 | 12 | 259 | 1.6 | 6.4 | 0.00 | 0.00 | 0.00 | 78 | 1014.2 |
| 20260503110507 | 14 | 189 | 0.0 | 4.8 | 0.00 | 0.00 | 0.00 | 69 | 1014.5 |
| 20260503090504 | 13 | 122 | 0.0 | 3.2 | 0.00 | 0.00 | 0.00 | 69 | 1014.6 |
| 20260503081512 | 13 | 122 | 0.0 | 3.2 | 0.00 | 0.00 | 0.00 | 68 | 1014.6 |
| 20260503081006 | 13 | 122 | 0.0 | 3.2 | 0.00 | 0.00 | 0.00 | 68 | 1014.6 |
| 20260503080505 | 13 | 122 | 0.0 | 3.2 | 0.00 | 0.00 | 0.00 | 69 | 1014.6 |
| 20260503072504 | 13 | 174 | 0.0 | 3.2 | 0.00 | 0.00 | 0.00 | 71 | 1014.5 |
| 20260503072008 | 13 | 174 | 0.0 | 4.8 | 0.00 | 0.00 | 0.00 | 72 | 1014.5 |
| 20260503071512 | 13 | 174 | 0.0 | 4.8 | 0.00 | 0.00 | 0.00 | 71 | 1014.4 |
| 20260503071004 | 14 | 174 | 1.6 | 9.7 | 0.00 | 0.00 | 0.00 | 71 | 1014.4 |
| 20260503070504 | 14 | 151 | 1.6 | 9.7 | 0.00 | 0.00 | 0.00 | 70 | 1014.3 |
| 20260503055006 | 16 | 164 | 0.0 | 3.2 | 0.00 | 0.00 | 0.00 | 63 | 1014.4 |
| 20260503054514 | 16 | 164 | 0.0 | 3.2 | 0.00 | 0.00 | 0.00 | 62 | 1014.4 |
| 20260503054006 | 16 | 164 | 0.0 | 3.2 | 0.00 | 0.00 | 0.00 | 61 | 1014.4 |
| 20260503053508 | 16 | 165 | 0.0 | 3.2 | 0.00 | 0.00 | 0.00 | 60 | 1014.3 |
| 20260503053014 | 16 | 164 | 1.6 | 3.2 | 0.00 | 0.00 | 0.00 | 60 | 1014.3 |
| 20260503052504 | 16 | 164 | 0.0 | 8.0 | 0.00 | 0.00 | 0.00 | 60 | 1014.3 |
| 20260503052008 | 16 | 163 | 0.0 | 8.0 | 0.00 | 0.00 | 0.00 | 59 | 1014.4 |
| 20260503051515 | 16 | 163 | 3.2 | 8.0 | 0.00 | 0.00 | 0.00 | 59 | 1014.3 |
| 20260503051012 | 17 | 153 | 1.6 | 6.4 | 0.00 | 0.00 | 0.00 | 58 | 1014.3 |
| 20260503050504 | 17 | 137 | 1.6 | 4.8 | 0.00 | 0.00 | 0.00 | 57 | 1014.1 |
| 20260503050017 | 17 | 69 | 1.6 | 3.2 | 0.00 | 0.00 | 0.00 | 57 | 1014.1 |
| 20260503045507 | 18 | 48 | 0.0 | 4.8 | 0.00 | 0.00 | 0.00 | 54 | 1014.0 |
| 20260503045007 | 18 | 47 | 0.0 | 8.0 | 0.00 | 0.00 | 0.00 | 53 | 1014.0 |
| 20260503044524 | 18 | 42 | 1.6 | 8.0 | 0.00 | 0.00 | 0.00 | 51 | 1013.9 |
| 20260503044008 | 18 | 38 | 0.0 | 9.7 | 0.00 | 0.00 | 0.00 | 50 | 1013.8 |
| 20260503043503 | 18 | 360 | 1.6 | 9.7 | 0.00 | 0.00 | 0.00 | 50 | 1013.8 |
| 20260503043028 | 18 | 21 | 3.2 | 9.7 | 0.00 | 0.00 | 0.00 | 49 | 1013.8 |
| 20260503042507 | 18 | 20 | 1.6 | 8.0 | 0.00 | 0.00 | 0.00 | 49 | 1013.7 |
| 20260503042008 | 18 | 285 | 1.6 | 9.7 | 0.00 | 0.00 | 0.00 | 49 | 1013.7 |
| 20260503041526 | 19 | 326 | 1.6 | 9.7 | 0.00 | 0.00 | 0.00 | 48 | 1013.7 |
| 20260503041007 | 19 | 22 | 0.0 | 16.1 | 0.00 | 0.00 | 0.00 | 48 | 1013.5 |
| 20260503040509 | 19 | 31 | 1.6 | 16.1 | 0.00 | 0.00 | 0.00 | 48 | 1013.5 |
| 20260503040022 | 19 | 298 | 1.6 | 9.7 | 0.00 | 0.00 | 0.00 | 48 | 1013.4 |
| 20260503035514 | 19 | 32 | 1.6 | 8.0 | 0.00 | 0.00 | 0.00 | 49 | 1013.4 |
| 20260503035007 | 19 | 42 | 1.6 | 16.1 | 0.00 | 0.00 | 0.00 | 48 | 1013.3 |
| 20260503034516 | 19 | 360 | 1.6 | 16.1 | 0.00 | 0.00 | 0.00 | 48 | 1013.3 |
| 20260503034007 | 19 | 351 | 1.6 | 9.7 | 0.00 | 0.00 | 0.00 | 48 | 1013.2 |
| 20260503033503 | 19 | 360 | 1.6 | 6.4 | 0.00 | 0.00 | 0.00 | 48 | 1013.2 |
| 20260503033016 | 19 | 23 | 1.6 | 14.5 | 0.00 | 0.00 | 0.00 | 49 | 1013.1 |
| 20260503032507 | 19 | 338 | 3.2 | 14.5 | 0.00 | 0.00 | 0.00 | 49 | 1013.1 |
| 20260503032007 | 20 | 42 | 1.6 | 16.1 | 0.00 | 0.00 | 0.00 | 48 | 1013.1 |
| 20260503031514 | 20 | 334 | 3.2 | 16.1 | 0.00 | 0.00 | 0.00 | 48 | 1013.0 |
| 20260503031008 | 20 | 317 | 3.2 | 12.9 | 0.00 | 0.00 | 0.00 | 47 | 1012.9 |
| 20260503030508 | 20 | 347 | 3.2 | 12.9 | 0.00 | 0.00 | 0.00 | 48 | 1012.9 |
| 20260503030012 | 20 | 346 | 3.2 | 14.5 | 0.00 | 0.00 | 0.00 | 47 | 1012.8 |
| 20260503025507 | 20 | 348 | 3.2 | 14.5 | 0.00 | 0.00 | 0.00 | 46 | 1012.8 |
| 20260503025006 | 20 | 350 | 3.2 | 14.5 | 0.00 | 0.00 | 0.00 | 45 | 1012.8 |
| 20260503024513 | 20 | 333 | 3.2 | 8.0 | 0.00 | 0.00 | 0.00 | 47 | 1012.8 |
| 20260503024006 | 20 | 329 | 3.2 | 17.7 | 0.00 | 0.00 | 0.00 | 46 | 1012.8 |
| 20260503023509 | 20 | 328 | 3.2 | 17.7 | 0.00 | 0.00 | 0.00 | 46 | 1012.9 |
| 20260503023015 | 20 | 17 | 4.8 | 17.7 | 0.00 | 0.00 | 0.00 | 47 | 1012.8 |
| 20260503022506 | 21 | 333 | 3.2 | 16.1 | 0.00 | 0.00 | 0.00 | 47 | 1012.9 |
| 20260503022012 | 21 | 351 | 4.8 | 16.1 | 0.00 | 0.00 | 0.00 | 46 | 1012.8 |
| 20260503021514 | 21 | 17 | 4.8 | 14.5 | 0.00 | 0.00 | 0.00 | 46 | 1012.8 |
| 20260503021011 | 21 | 321 | 4.8 | 20.9 | 0.00 | 0.00 | 0.00 | 46 | 1012.8 |
| 20260503020507 | 21 | 318 | 6.4 | 20.9 | 0.00 | 0.00 | 0.00 | 45 | 1012.8 |
| 20260503020014 | 21 | 331 | 4.8 | 17.7 | 0.00 | 0.00 | 0.00 | 44 | 1012.9 |
| 20260503015507 | 21 | 292 | 6.4 | 37.0 | 0.00 | 0.00 | 0.00 | 46 | 1012.9 |
| 20260503015009 | 21 | 13 | 6.4 | 37.0 | 0.00 | 0.00 | 0.00 | 45 | 1012.9 |
| 20260503014516 | 22 | 311 | 4.8 | 17.7 | 0.00 | 0.00 | 0.00 | 44 | 1012.8 |
| 20260503014007 | 22 | 333 | 6.4 | 17.7 | 0.00 | 0.00 | 0.00 | 43 | 1013.0 |
| 20260503013507 | 22 | 338 | 4.8 | 17.7 | 0.00 | 0.00 | 0.00 | 43 | 1013.0 |
| 20260503013016 | 22 | 296 | 6.4 | 20.9 | 0.00 | 0.00 | 0.00 | 43 | 1013.0 |
| 20260503012509 | 22 | 338 | 6.4 | 20.9 | 0.00 | 0.00 | 0.00 | 43 | 1013.0 |
| 20260503012005 | 22 | 304 | 6.4 | 20.9 | 0.00 | 0.00 | 0.00 | 43 | 1013.0 |
| 20260503011517 | 22 | 32 | 3.2 | 16.1 | 0.00 | 0.00 | 0.00 | 43 | 1013.0 |
| 20260503011007 | 22 | 15 | 4.8 | 19.3 | 0.00 | 0.00 | 0.00 | 42 | 1013.1 |
| 20260503010506 | 22 | 319 | 3.2 | 17.7 | 0.00 | 0.00 | 0.00 | 42 | 1013.1 |
| 20260503010014 | 22 | 330 | 6.4 | 20.9 | 0.00 | 0.00 | 0.00 | 43 | 1013.0 |
| 20260503005505 | 22 | 325 | 6.4 | 20.9 | 0.00 | 0.00 | 0.00 | 43 | 1013.1 |
| 20260503005006 | 23 | 11 | 3.2 | 19.3 | 0.00 | 0.00 | 0.00 | 43 | 1013.1 |
| 20260503004517 | 23 | 279 | 3.2 | 17.7 | 0.00 | 0.00 | 0.00 | 44 | 1013.1 |
| 20260503004007 | 23 | 332 | 6.4 | 17.7 | 0.00 | 0.00 | 0.00 | 42 | 1013.2 |
| 20260503003507 | 23 | 324 | 4.8 | 20.9 | 0.00 | 0.00 | 0.00 | 43 | 1013.3 |
| 20260503003013 | 23 | 350 | 3.2 | 20.9 | 0.00 | 0.00 | 0.00 | 42 | 1013.3 |
| 20260503002505 | 23 | 327 | 6.4 | 20.9 | 0.00 | 0.00 | 0.00 | 43 | 1013.2 |
| 20260503002009 | 23 | 288 | 4.8 | 17.7 | 0.00 | 0.00 | 0.00 | 43 | 1013.2 |
| 20260503001516 | 23 | 322 | 4.8 | 17.7 | 0.00 | 0.00 | 0.00 | 44 | 1013.3 |
| 20260503001009 | 23 | 9 | 4.8 | 14.5 | 0.00 | 0.00 | 0.00 | 43 | 1013.3 |
| 20260503000507 | 23 | 323 | 3.2 | 20.9 | 0.00 | 0.00 | 0.00 | 43 | 1013.3 |
| 20260503000018 | 23 | 9 | 3.2 | 32.2 | 0.00 | 0.00 | 0.00 | 44 | 1013.4 |
| 20260502235507 | 23 | 57 | 4.8 | 32.2 | 0.00 | 0.00 | 0.00 | 44 | 1013.3 |
| 20260502235006 | 23 | 319 | 6.4 | 27.4 | 0.00 | 0.00 | 0.00 | 44 | 1013.4 |
| 20260502234518 | 23 | 200 | 1.6 | 19.3 | 0.00 | 0.00 | 0.00 | 45 | 1013.5 |
| 20260502234008 | 23 | 350 | 4.8 | 14.5 | 0.00 | 0.00 | 0.00 | 44 | 1013.6 |
| 20260502233507 | 23 | 321 | 3.2 | 24.1 | 0.00 | 0.00 | 0.00 | 45 | 1013.7 |
| 20260502233019 | 23 | 326 | 6.4 | 24.1 | 0.00 | 0.00 | 0.00 | 44 | 1013.7 |
| 20260502232507 | 23 | 9 | 4.8 | 17.7 | 0.00 | 0.00 | 0.00 | 45 | 1013.9 |
| 20260502232008 | 23 | 15 | 3.2 | 17.7 | 0.00 | 0.00 | 0.00 | 45 | 1013.9 |
| 20260502231516 | 23 | 9 | 4.8 | 19.3 | 0.00 | 0.00 | 0.00 | 48 | 1013.9 |
| 20260502231011 | 23 | 360 | 4.8 | 19.3 | 0.00 | 0.00 | 0.00 | 46 | 1013.9 |
| 20260502230507 | 23 | 17 | 4.8 | 17.7 | 0.00 | 0.00 | 0.00 | 47 | 1014.0 |
| 20260502230023 | 23 | 350 | 6.4 | 20.9 | 0.00 | 0.00 | 0.00 | 47 | 1014.2 |
| 20260502225507 | 23 | 336 | 4.8 | 22.5 | 0.00 | 0.00 | 0.00 | 48 | 1014.2 |